Pahala, Hawaii
Current Conditions -  °F | °C
As of 5:56 AM on Monday 24 Nov 2014 (Local Time) from PHSF Reporting Station
Few Clouds Few Clouds  
Wind Chill: 44°   Ceiling: Unl
Heat Index: 46°   Visibility: 9mi
Dew Point: 43°   Wind: 5mph
Humidity: 88%   Direction: 120°ESE
Pressure: 30.24"   Gusts: NA
Location:  19.2°N, 155.47°W
Report Text: PHSF 241556Z AUTO 12004KT 9SM FEW010 08/06 A3024 RMK AO2 SLP143 T00780059 $
Loading
Personal Weather Stations






























Interactive Weather Map New forecast layout! Learn more

10-Day Weather Forecast

Advertisements
Track Severe Weather on mobile